Time;durP1;ratioP1;P1;durP2;ratioP2;P2;SDS_P1;SDS_P2;PMS_P1;PMS_P2;Temp;Humidity;BMP_temperature;BMP_pressure;BME280_temperature;BME280_humidity;BME280_pressure;Samples;Min_cycle;Max_cycle;Signal;HPM_P1;HPM_P2
2022/02/19 00:00:40;;;;;;;1.10;0.25;;;8.60;1.00;;;;;;5055666;28;20748;-59
2022/02/19 00:03:06;;;;;;;1.00;0.23;;;8.60;1.00;;;;;;5057237;28;20840;-58
2022/02/19 00:05:33;;;;;;;1.05;0.20;;;8.60;1.00;;;;;;5056857;28;20429;-59
2022/02/19 00:08:02;;;;;;;0.70;0.20;;;8.70;1.00;;;;;;5055480;28;20436;-59
2022/02/19 00:10:29;;;;;;;0.90;0.20;;;8.70;1.00;;;;;;5055619;28;20465;-59
2022/02/19 00:12:55;;;;;;;1.10;0.30;;;8.60;1.00;;;;;;5056283;28;20861;-59
2022/02/19 00:15:22;;;;;;;1.40;0.20;;;8.60;1.00;;;;;;5056413;28;20515;-58
2022/02/19 00:17:49;;;;;;;0.80;0.20;;;8.60;1.00;;;;;;5056041;28;20421;-59
2022/02/19 00:20:16;;;;;;;1.77;0.25;;;8.60;1.00;;;;;;5056395;28;20884;-59
2022/02/19 00:22:43;;;;;;;0.57;0.20;;;8.50;1.00;;;;;;5056058;28;20425;-59
2022/02/19 00:25:11;;;;;;;1.02;0.30;;;8.50;1.00;;;;;;5055440;28;20429;-59
2022/02/19 00:27:38;;;;;;;1.13;0.30;;;8.60;1.00;;;;;;5055910;28;20433;-59
2022/02/19 00:30:06;;;;;;;0.98;0.20;;;8.70;1.00;;;;;;5056679;28;20464;-59
2022/02/19 00:32:33;;;;;;;1.10;0.30;;;8.60;1.00;;;;;;5056426;28;20853;-58
2022/02/19 00:35:00;;;;;;;2.10;0.30;;;8.60;1.00;;;;;;5056439;28;20420;-57
2022/02/19 00:37:28;;;;;;;1.38;0.20;;;8.60;1.00;;;;;;5056841;28;20448;-56
2022/02/19 00:39:55;;;;;;;1.20;0.28;;;8.50;1.00;;;;;;5056777;28;20421;-57
2022/02/19 00:42:24;;;;;;;0.85;0.32;;;8.50;1.00;;;;;;5056601;28;20436;-57
2022/02/19 00:44:51;;;;;;;1.70;0.30;;;8.50;1.00;;;;;;5055643;28;20483;-57
2022/02/19 00:47:18;;;;;;;1.70;0.20;;;8.50;1.00;;;;;;5056436;28;20433;-59
2022/02/19 00:49:45;;;;;;;0.80;0.20;;;8.50;1.00;;;;;;5056497;28;20432;-59
2022/02/19 00:52:11;;;;;;;1.08;0.20;;;8.40;1.00;;;;;;5056679;28;20455;-58
2022/02/19 00:54:38;;;;;;;2.25;0.20;;;8.40;1.00;;;;;;5056339;28;20429;-57
2022/02/19 00:57:05;;;;;;;1.27;0.30;;;8.50;1.00;;;;;;5056249;28;20425;-57
2022/02/19 00:59:33;;;;;;;1.65;0.30;;;8.50;1.00;;;;;;5055478;28;20417;-57
2022/02/19 01:02:00;;;;;;;0.88;0.30;;;8.50;1.00;;;;;;5056158;28;20440;-57
2022/02/19 01:04:27;;;;;;;0.80;0.20;;;8.40;1.00;;;;;;5056057;28;20506;-57
2022/02/19 01:06:54;;;;;;;0.75;0.30;;;8.30;1.00;;;;;;5055197;28;20429;-57
2022/02/19 01:09:21;;;;;;;0.90;0.20;;;8.40;1.00;;;;;;5055308;28;20421;-56
2022/02/19 01:11:48;;;;;;;1.40;0.20;;;8.40;1.00;;;;;;5054437;28;20425;-59
2022/02/19 01:14:14;;;;;;;1.67;0.20;;;8.40;1.00;;;;;;5054927;28;20427;-59
2022/02/19 01:16:42;;;;;;;1.08;0.30;;;8.40;1.00;;;;;;5054298;28;20433;-58
2022/02/19 01:19:09;;;;;;;1.10;0.20;;;8.40;1.00;;;;;;5054899;28;20421;-58
2022/02/19 01:21:36;;;;;;;0.60;0.20;;;8.40;1.00;;;;;;5055430;28;20472;-57
2022/02/19 01:24:03;;;;;;;1.00;0.30;;;8.30;1.00;;;;;;5055682;28;20820;-58
2022/02/19 01:26:31;;;;;;;1.55;0.30;;;8.30;1.00;;;;;;5054323;28;20600;-58
2022/02/19 01:28:58;;;;;;;0.80;0.30;;;8.30;1.00;;;;;;5054044;28;20472;-58
2022/02/19 01:31:25;;;;;;;0.90;0.30;;;8.40;1.00;;;;;;5052519;28;20433;-57
2022/02/19 01:33:54;;;;;;;0.80;0.20;;;8.40;1.00;;;;;;5053475;28;20664;-56
2022/02/19 01:36:20;;;;;;;1.45;0.20;;;8.40;1.00;;;;;;5053064;28;20472;-58
2022/02/19 01:38:47;;;;;;;2.10;0.30;;;8.40;1.00;;;;;;5053402;28;20804;-57
2022/02/19 01:41:14;;;;;;;1.05;0.20;;;8.30;1.00;;;;;;5053170;28;20433;-58
2022/02/19 01:43:41;;;;;;;1.65;0.30;;;8.20;1.00;;;;;;5054042;28;20432;-57
2022/02/19 01:46:08;;;;;;;0.50;0.13;;;8.30;1.00;;;;;;5054568;28;20445;-57
2022/02/19 01:48:35;;;;;;;1.90;0.30;;;8.40;1.00;;;;;;5054927;28;20745;-58
2022/02/19 01:51:03;;;;;;;0.90;0.20;;;8.40;1.00;;;;;;5054679;28;20429;-57
2022/02/19 01:53:31;;;;;;;0.88;0.20;;;8.30;1.00;;;;;;5054367;28;20790;-58
2022/02/19 01:55:58;;;;;;;0.50;0.20;;;8.20;1.00;;;;;;5055041;28;20451;-57
2022/02/19 01:58:26;;;;;;;1.10;0.30;;;8.20;1.00;;;;;;5054996;28;20421;-57
2022/02/19 02:00:53;;;;;;;1.83;0.20;;;8.20;1.00;;;;;;5055267;28;20430;-57
2022/02/19 02:03:20;;;;;;;1.00;0.20;;;8.20;1.00;;;;;;5055128;28;20423;-58
2022/02/19 02:05:47;;;;;;;1.10;0.20;;;8.30;1.00;;;;;;5055249;28;20712;-57
2022/02/19 02:08:15;;;;;;;1.10;0.20;;;8.30;1.00;;;;;;5054875;28;20437;-57
2022/02/19 02:10:43;;;;;;;1.00;0.30;;;8.20;1.00;;;;;;5055182;28;20431;-57
2022/02/19 02:13:10;;;;;;;0.80;0.30;;;8.20;1.00;;;;;;5054204;28;20487;-58
2022/02/19 02:15:36;;;;;;;0.50;0.20;;;8.20;1.00;;;;;;5054951;28;20429;-58
2022/02/19 02:18:03;;;;;;;0.80;0.20;;;8.30;1.00;;;;;;5055185;28;20717;-58
2022/02/19 02:20:30;;;;;;;0.87;0.20;;;8.20;1.00;;;;;;5054939;28;20432;-57
2022/02/19 02:22:59;;;;;;;1.52;0.30;;;8.20;1.00;;;;;;5054985;28;20534;-57
2022/02/19 02:25:28;;;;;;;1.10;0.20;;;8.20;1.00;;;;;;5055087;28;20429;-57
2022/02/19 02:27:55;;;;;;;1.27;0.22;;;8.20;1.00;;;;;;5054832;28;20702;-57
2022/02/19 02:30:23;;;;;;;0.75;0.30;;;8.10;1.00;;;;;;5055138;28;20705;-59
2022/02/19 02:32:50;;;;;;;1.20;0.20;;;8.10;1.00;;;;;;5053703;28;20443;-57
2022/02/19 02:35:17;;;;;;;1.00;0.28;;;8.10;1.00;;;;;;5052884;28;20433;-58
2022/02/19 02:37:44;;;;;;;0.95;0.20;;;8.10;1.00;;;;;;5052015;28;20443;-57
2022/02/19 02:40:13;;;;;;;1.60;0.30;;;8.20;1.00;;;;;;5052898;28;20732;-57
2022/02/19 02:42:40;;;;;;;1.35;0.30;;;8.10;1.00;;;;;;5051529;28;20421;-58
2022/02/19 02:45:08;;;;;;;1.10;0.20;;;8.10;1.00;;;;;;5051142;28;20413;-56
2022/02/19 02:47:37;;;;;;;1.27;0.20;;;8.10;1.00;;;;;;5051457;28;20860;-58
2022/02/19 02:50:05;;;;;;;1.00;0.20;;;8.00;1.00;;;;;;5052985;28;20524;-58
2022/02/19 02:52:32;;;;;;;1.33;0.27;;;7.90;1.00;;;;;;5052961;28;20429;-56
2022/02/19 02:54:59;;;;;;;2.50;0.30;;;7.90;1.00;;;;;;5053220;28;20421;-57
2022/02/19 02:57:27;;;;;;;2.28;0.30;;;7.90;1.00;;;;;;5052849;28;20424;-58
2022/02/19 02:59:54;;;;;;;0.70;0.20;;;7.80;1.00;;;;;;5053721;28;20772;-56
2022/02/19 03:02:20;;;;;;;0.60;0.20;;;7.70;1.00;;;;;;5053529;28;20726;-59
2022/02/19 03:04:47;;;;;;;0.80;0.30;;;7.80;1.00;;;;;;5054120;28;20421;-56
2022/02/19 03:07:14;;;;;;;3.13;0.30;;;7.80;1.00;;;;;;5054730;28;20704;-58
2022/02/19 03:09:41;;;;;;;1.80;0.40;;;7.90;1.00;;;;;;5057738;28;20424;-58
2022/02/19 03:12:10;;;;;;;0.70;0.30;;;7.90;1.00;;;;;;5057745;28;20867;-57
2022/02/19 03:14:38;;;;;;;1.10;0.30;;;7.90;1.00;;;;;;5057216;28;20413;-57
2022/02/19 03:17:05;;;;;;;0.82;0.20;;;7.80;1.00;;;;;;5057028;28;20686;-57
2022/02/19 03:19:32;;;;;;;2.40;0.30;;;7.80;1.00;;;;;;5057295;28;20530;-58
2022/02/19 03:21:59;;;;;;;0.70;0.30;;;7.90;1.00;;;;;;5058127;28;20425;-58
2022/02/19 03:24:25;;;;;;;1.38;0.30;;;7.80;1.00;;;;;;5058066;28;20456;-57
2022/02/19 03:26:52;;;;;;;1.07;0.20;;;7.70;1.00;;;;;;5058210;28;20433;-57
2022/02/19 03:29:19;;;;;;;1.20;0.20;;;7.60;1.00;;;;;;5057947;28;20737;-57
2022/02/19 03:31:47;;;;;;;0.80;0.20;;;7.50;1.00;;;;;;5057247;28;20434;-57
2022/02/19 03:34:14;;;;;;;0.60;0.20;;;7.50;1.00;;;;;;5056985;28;20443;-57
2022/02/19 03:36:41;;;;;;;0.77;0.20;;;7.50;1.00;;;;;;5057305;28;20432;-56
2022/02/19 03:39:08;;;;;;;0.70;0.20;;;7.50;1.00;;;;;;5056982;28;20445;-57
2022/02/19 03:41:35;;;;;;;1.30;0.30;;;7.50;1.00;;;;;;5057410;28;20833;-57
2022/02/19 03:44:02;;;;;;;0.63;0.20;;;7.50;1.00;;;;;;5057197;28;20428;-56
2022/02/19 03:46:30;;;;;;;1.70;0.30;;;7.50;1.00;;;;;;5057472;28;20429;-57
2022/02/19 03:48:59;;;;;;;1.00;0.20;;;7.50;1.00;;;;;;5057343;28;20790;-57
2022/02/19 03:51:26;;;;;;;0.60;0.20;;;7.50;1.00;;;;;;5057416;28;20429;-58
2022/02/19 03:53:53;;;;;;;0.80;0.20;;;7.50;1.00;;;;;;5057497;28;20421;-58
2022/02/19 03:56:20;;;;;;;2.40;0.30;;;7.50;1.00;;;;;;5056692;28;20817;-58
2022/02/19 03:58:47;;;;;;;1.60;0.30;;;7.50;1.00;;;;;;5056472;28;20714;-58
2022/02/19 04:01:14;;;;;;;1.50;0.23;;;7.40;1.00;;;;;;5056108;28;20485;-57
2022/02/19 04:03:41;;;;;;;1.65;0.20;;;7.40;1.00;;;;;;5055596;28;20421;-58
2022/02/19 04:06:09;;;;;;;1.80;0.20;;;7.30;1.00;;;;;;5056372;28;20437;-57
2022/02/19 04:08:36;;;;;;;1.00;0.30;;;7.30;1.00;;;;;;5056041;28;20918;-58
2022/02/19 04:11:03;;;;;;;0.82;0.20;;;7.30;1.00;;;;;;5057373;28;20432;-58
2022/02/19 04:13:30;;;;;;;2.20;0.30;;;7.20;1.00;;;;;;5057320;28;20444;-58
2022/02/19 04:15:56;;;;;;;0.85;0.35;;;7.20;1.00;;;;;;5057065;28;20425;-58
2022/02/19 04:18:23;;;;;;;0.90;0.30;;;7.10;1.00;;;;;;5057269;28;20821;-55
2022/02/19 04:20:50;;;;;;;1.00;0.20;;;7.10;1.00;;;;;;5056587;28;20471;-58
2022/02/19 04:23:18;;;;;;;1.25;0.20;;;7.20;1.00;;;;;;5056785;28;20509;-58
2022/02/19 04:25:45;;;;;;;1.65;0.20;;;7.20;1.00;;;;;;5057017;28;20429;-58
2022/02/19 04:28:12;;;;;;;3.03;0.30;;;7.30;1.00;;;;;;5048523;28;20443;-57
2022/02/19 04:30:39;;;;;;;1.10;0.22;;;7.20;1.00;;;;;;5057001;28;20849;-58
2022/02/19 04:33:06;;;;;;;1.50;0.20;;;7.10;1.00;;;;;;5056782;28;20433;-58
2022/02/19 04:35:34;;;;;;;1.75;0.30;;;7.10;1.00;;;;;;5057070;28;20851;-57
2022/02/19 04:38:01;;;;;;;1.20;0.20;;;7.10;1.00;;;;;;5056589;28;20853;-58
2022/02/19 04:40:29;;;;;;;1.80;0.20;;;7.10;1.00;;;;;;5056569;28;20713;-57
2022/02/19 04:42:56;;;;;;;0.57;0.20;;;7.20;1.00;;;;;;5056490;28;20421;-57
2022/02/19 04:45:23;;;;;;;1.40;0.20;;;7.10;1.00;;;;;;5056806;28;20440;-55
2022/02/19 04:47:50;;;;;;;0.50;0.20;;;7.10;1.00;;;;;;5055867;28;20414;-55
2022/02/19 04:50:17;;;;;;;1.20;0.28;;;7.00;1.00;;;;;;5055259;28;20439;-58
2022/02/19 04:52:44;;;;;;;0.50;0.20;;;6.90;1.00;;;;;;5055919;28;20417;-57
2022/02/19 04:55:11;;;;;;;1.70;0.30;;;6.90;1.00;;;;;;5056518;28;20527;-57
2022/02/19 04:57:43;;;;;;;1.48;0.20;;;6.90;1.00;;;;;;5055996;28;20413;-57
2022/02/19 05:00:11;;;;;;;1.30;0.20;;;6.90;1.00;;;;;;5056117;28;20895;-56
2022/02/19 05:02:39;;;;;;;1.30;0.20;;;6.90;1.00;;;;;;5055159;28;20603;-58
2022/02/19 05:05:06;;;;;;;1.80;0.28;;;6.90;1.00;;;;;;5054262;28;20702;-57
2022/02/19 05:07:33;;;;;;;1.50;0.20;;;6.90;1.00;;;;;;5054170;28;20428;-58
2022/02/19 05:10:00;;;;;;;1.70;0.30;;;6.90;1.00;;;;;;5053837;28;20429;-57
2022/02/19 05:12:27;;;;;;;1.20;0.20;;;6.80;1.00;;;;;;5053715;28;20421;-56
2022/02/19 05:14:55;;;;;;;1.88;0.20;;;6.80;1.00;;;;;;5053849;28;20428;-61
2022/02/19 05:17:22;;;;;;;1.60;0.20;;;6.80;1.00;;;;;;5053771;28;20762;-56
2022/02/19 05:19:49;;;;;;;1.73;0.30;;;6.80;1.00;;;;;;5054798;28;20429;-58
2022/02/19 05:22:16;;;;;;;0.80;0.20;;;6.80;1.00;;;;;;5055128;28;20417;-57
2022/02/19 05:24:43;;;;;;;1.10;0.20;;;6.70;1.00;;;;;;5054504;28;20721;-59
2022/02/19 05:27:09;;;;;;;0.60;0.20;;;6.60;1.00;;;;;;5056054;28;20429;-57
2022/02/19 05:29:36;;;;;;;1.00;0.30;;;6.70;1.00;;;;;;5055351;28;20439;-58
2022/02/19 05:32:06;;;;;;;0.70;0.20;;;6.80;1.00;;;;;;5055801;28;20740;-57
2022/02/19 05:34:32;;;;;;;0.90;0.20;;;6.70;1.00;;;;;;5055426;28;20443;-58
2022/02/19 05:36:59;;;;;;;0.50;0.30;;;6.70;1.00;;;;;;5055678;28;20429;-59
2022/02/19 05:39:26;;;;;;;2.60;0.20;;;6.70;1.00;;;;;;5055609;28;20417;-57
2022/02/19 05:41:53;;;;;;;1.63;0.30;;;6.80;1.00;;;;;;5055567;28;20506;-58
2022/02/19 05:44:19;;;;;;;1.40;0.30;;;6.80;1.00;;;;;;5055408;28;20421;-57
2022/02/19 05:46:46;;;;;;;1.13;0.20;;;6.80;1.00;;;;;;5055588;28;20436;-57
2022/02/19 05:49:14;;;;;;;2.40;0.20;;;6.80;1.00;;;;;;5054984;28;20452;-59
2022/02/19 05:51:41;;;;;;;1.15;0.30;;;6.80;1.00;;;;;;5054601;28;20429;-59
2022/02/19 05:54:08;;;;;;;1.00;0.20;;;6.80;1.00;;;;;;5054629;28;20821;-59
2022/02/19 05:56:35;;;;;;;1.88;0.20;;;6.80;1.00;;;;;;5054089;28;20429;-59
2022/02/19 05:59:02;;;;;;;0.55;0.20;;;6.70;1.00;;;;;;5053404;28;20418;-59
2022/02/19 06:01:30;;;;;;;0.60;0.20;;;6.60;1.00;;;;;;5053994;28;20527;-59
2022/02/19 06:03:57;;;;;;;0.70;0.20;;;6.60;1.00;;;;;;5053703;28;21028;-59
2022/02/19 06:06:25;;;;;;;1.30;0.20;;;6.60;1.00;;;;;;5053526;28;20424;-59
2022/02/19 06:08:52;;;;;;;0.90;0.20;;;6.50;1.00;;;;;;5053025;28;20867;-59
2022/02/19 06:11:19;;;;;;;0.73;0.30;;;6.60;1.00;;;;;;5054099;28;20435;-59
2022/02/19 06:13:45;;;;;;;2.92;0.30;;;6.50;1.00;;;;;;5055242;28;20484;-59
2022/02/19 06:16:14;;;;;;;1.00;0.20;;;6.40;1.00;;;;;;5054962;28;20439;-59
2022/02/19 06:18:41;;;;;;;2.60;0.20;;;6.40;1.00;;;;;;5054998;28;20449;-59
2022/02/19 06:21:07;;;;;;;1.60;0.30;;;6.40;1.00;;;;;;5055040;28;20438;-59
2022/02/19 06:23:36;;;;;;;1.70;0.30;;;6.40;1.00;;;;;;5054058;28;20413;-59
2022/02/19 06:26:02;;;;;;;1.20;0.30;;;6.40;1.00;;;;;;5054633;28;20495;-58
2022/02/19 06:28:29;;;;;;;0.80;0.20;;;6.60;1.00;;;;;;5054315;28;20418;-59
2022/02/19 06:30:56;;;;;;;1.00;0.20;;;6.50;1.00;;;;;;5054174;28;20440;-58
2022/02/19 06:33:23;;;;;;;1.10;0.20;;;6.50;1.00;;;;;;5053541;28;20429;-58
2022/02/19 06:35:49;;;;;;;2.03;0.25;;;6.40;1.00;;;;;;5053527;28;20710;-58
2022/02/19 06:38:16;;;;;;;0.60;0.20;;;6.50;1.00;;;;;;5053028;28;20852;-58
2022/02/19 06:40:44;;;;;;;2.38;0.30;;;6.50;1.00;;;;;;5052845;28;20837;-59
2022/02/19 06:43:11;;;;;;;1.42;0.20;;;6.50;1.00;;;;;;5053284;28;20762;-59
2022/02/19 06:45:38;;;;;;;1.73;0.30;;;6.20;1.00;;;;;;5056260;28;20725;-59
2022/02/19 06:48:06;;;;;;;1.25;0.22;;;6.30;1.00;;;;;;5054964;28;20820;-59
2022/02/19 06:50:33;;;;;;;0.47;0.20;;;6.30;1.00;;;;;;5055018;28;20608;-59
2022/02/19 06:53:00;;;;;;;1.40;0.30;;;6.60;1.00;;;;;;5059965;28;20427;-55
2022/02/19 06:55:27;;;;;;;0.70;0.28;;;6.70;1.00;;;;;;5070195;28;20442;-55
2022/02/19 06:57:55;;;;;;;0.80;0.25;;;6.50;1.00;;;;;;5072939;28;20427;-55
2022/02/19 07:00:22;;;;;;;2.55;0.30;;;6.50;1.00;;;;;;5076158;28;20765;-56
2022/02/19 07:02:49;;;;;;;1.88;0.30;;;6.60;1.00;;;;;;5076846;28;20848;-56
2022/02/19 07:05:16;;;;;;;1.60;0.30;;;6.80;1.00;;;;;;5077889;28;20427;-50
2022/02/19 07:07:42;;;;;;;0.47;0.20;;;6.80;1.00;;;;;;5077071;28;20416;-54
2022/02/19 07:10:10;;;;;;;1.30;0.20;;;6.80;1.00;;;;;;5077784;28;20435;-49
2022/02/19 07:12:38;;;;;;;2.90;0.40;;;6.70;1.00;;;;;;5077895;28;20427;-49
2022/02/19 07:15:09;;;;;;;1.73;0.30;;;6.60;1.00;;;;;;5077919;28;20696;-53
2022/02/19 07:17:46;;;;;;;1.17;0.30;;;6.40;1.00;;;;;;5077824;28;20419;-49
2022/02/19 07:20:13;;;;;;;2.70;0.30;;;6.50;1.00;;;;;;5077935;28;20485;-49
2022/02/19 07:22:40;;;;;;;2.90;0.23;;;6.40;1.00;;;;;;5077746;28;20426;-54
2022/02/19 07:25:07;;;;;;;1.80;0.30;;;6.30;1.00;;;;;;5078036;28;20527;-53
2022/02/19 07:27:38;;;;;;;0.80;0.30;;;6.50;1.00;;;;;;5077420;28;20454;-54
2022/02/19 07:30:08;;;;;;;1.98;0.30;;;6.40;1.00;;;;;;5076836;28;20719;-55
2022/02/19 07:32:36;;;;;;;1.23;0.30;;;6.30;1.00;;;;;;5076262;28;20434;-54
2022/02/19 07:35:03;;;;;;;1.20;0.30;;;6.40;1.00;;;;;;5075136;28;20695;-52
2022/02/19 07:37:30;;;;;;;0.70;0.30;;;6.60;1.00;;;;;;5076076;28;20420;-55
2022/02/19 07:39:57;;;;;;;2.00;0.30;;;6.70;1.00;;;;;;5076059;28;20860;-56
2022/02/19 07:42:23;;;;;;;0.60;0.30;;;6.70;1.00;;;;;;5076089;28;20430;-55
2022/02/19 07:44:51;;;;;;;2.40;0.20;;;6.70;1.00;;;;;;5075653;28;20419;-58
2022/02/19 07:47:23;;;;;;;1.63;0.22;;;6.70;1.00;;;;;;5075397;28;20519;-58
2022/02/19 07:58:22;;;;;;;0.70;0.20;;;6.90;1.00;;;;;;5054970;28;20462;-57
2022/02/19 08:00:50;;;;;;;0.88;0.20;;;7.10;1.00;;;;;;5055795;28;20837;-53
2022/02/19 08:03:21;;;;;;;2.70;0.20;;;7.10;1.00;;;;;;5055676;28;20429;-55
2022/02/19 08:05:48;;;;;;;1.17;0.20;;;7.20;1.00;;;;;;5056497;28;20429;-51
2022/02/19 08:08:15;;;;;;;1.20;0.40;;;7.30;1.00;;;;;;5056697;28;20773;-57
2022/02/19 08:10:43;;;;;;;1.00;0.20;;;7.40;1.00;;;;;;5056422;28;20520;-56
2022/02/19 08:13:10;;;;;;;0.60;0.25;;;7.40;1.00;;;;;;5056360;28;20717;-55
2022/02/19 08:15:38;;;;;;;1.50;0.30;;;7.30;1.00;;;;;;5055637;28;20433;-50
2022/02/19 08:18:05;;;;;;;1.42;0.30;;;7.40;1.00;;;;;;5055187;28;20452;-54
2022/02/19 08:20:35;;;;;;;0.70;0.30;;;7.40;1.00;;;;;;5055556;28;20417;-58
2022/02/19 08:23:03;;;;;;;0.65;0.20;;;7.20;1.00;;;;;;5054967;28;20425;-53
2022/02/19 08:25:29;;;;;;;1.60;0.40;;;7.30;1.00;;;;;;5050572;28;20433;-53
2022/02/19 08:27:56;;;;;;;0.57;0.20;;;7.50;1.00;;;;;;5046552;28;20463;-54
2022/02/19 08:30:23;;;;;;;1.10;0.20;;;7.50;1.00;;;;;;5051795;28;20732;-52
2022/02/19 08:32:50;;;;;;;0.90;0.50;;;7.60;1.00;;;;;;5051285;28;20691;-50
2022/02/19 08:35:17;;;;;;;0.70;0.20;;;7.60;1.00;;;;;;5034690;28;20441;-54
2022/02/19 08:37:46;;;;;;;1.20;0.30;;;7.70;1.00;;;;;;5035569;28;20871;-52
2022/02/19 08:40:14;;;;;;;1.80;0.20;;;7.70;1.00;;;;;;5040507;28;20440;-53
2022/02/19 08:42:42;;;;;;;1.30;0.30;;;7.70;1.00;;;;;;5040273;28;20432;-53
2022/02/19 08:45:10;;;;;;;1.50;0.20;;;7.70;1.00;;;;;;5041398;28;20445;-50
2022/02/19 08:47:37;;;;;;;1.10;0.30;;;7.90;1.00;;;;;;5043407;28;20453;-53
2022/02/19 08:50:06;;;;;;;0.93;0.40;;;8.00;1.00;;;;;;5035642;28;20741;-54
2022/02/19 08:52:33;;;;;;;3.90;0.30;;;7.90;1.00;;;;;;5046472;28;20853;-50
2022/02/19 08:55:02;;;;;;;2.25;0.30;;;7.80;1.00;;;;;;5049181;28;20478;-54
2022/02/19 08:57:29;;;;;;;1.60;0.30;;;7.80;1.00;;;;;;5036580;28;20525;-54
2022/02/19 08:59:55;;;;;;;2.57;0.30;;;7.60;1.00;;;;;;5035474;28;20504;-50
2022/02/19 09:02:22;;;;;;;1.70;0.30;;;7.70;1.00;;;;;;5050515;28;20524;-52
2022/02/19 09:04:49;;;;;;;1.75;0.30;;;7.80;1.00;;;;;;5051952;28;20443;-52
2022/02/19 09:07:17;;;;;;;1.30;0.20;;;7.80;1.00;;;;;;5052353;28;20428;-49
2022/02/19 09:09:44;;;;;;;0.82;0.20;;;7.80;1.00;;;;;;5050321;28;20811;-52
2022/02/19 09:12:12;;;;;;;1.15;0.30;;;7.70;1.00;;;;;;5036692;28;20858;-48
2022/02/19 09:14:39;;;;;;;0.60;0.20;;;7.50;1.00;;;;;;5046720;28;20718;-49
2022/02/19 09:17:06;;;;;;;3.05;0.40;;;7.40;1.00;;;;;;5052676;28;20435;-53
2022/02/19 09:19:33;;;;;;;1.40;0.30;;;7.70;1.00;;;;;;5049503;28;20433;-54
2022/02/19 09:22:01;;;;;;;1.75;0.30;;;7.90;1.00;;;;;;5051533;28;20433;-53
2022/02/19 09:24:28;;;;;;;1.20;0.20;;;8.00;1.00;;;;;;5052278;28;20437;-52
2022/02/19 09:26:55;;;;;;;1.00;0.30;;;8.10;1.00;;;;;;5032731;28;20796;-49
2022/02/19 09:29:24;;;;;;;0.80;0.20;;;8.10;1.00;;;;;;5043585;28;20437;-53
2022/02/19 09:31:51;;;;;;;0.73;0.20;;;8.00;1.00;;;;;;5051816;28;20747;-51
2022/02/19 09:34:18;;;;;;;0.90;0.30;;;7.80;1.00;;;;;;5046735;28;20441;-54
2022/02/19 09:36:45;;;;;;;0.88;0.22;;;7.80;1.00;;;;;;5051440;28;20437;-55
2022/02/19 09:39:13;;;;;;;1.30;0.30;;;7.70;1.00;;;;;;5035584;28;20860;-53
2022/02/19 09:41:43;;;;;;;2.15;0.30;;;7.80;1.00;;;;;;5044603;28;20439;-52
2022/02/19 09:44:09;;;;;;;0.65;0.30;;;7.70;1.00;;;;;;5049432;28;20437;-50
2022/02/19 09:46:38;;;;;;;1.00;0.40;;;7.60;1.00;;;;;;5050912;28;20750;-52
2022/02/19 09:49:06;;;;;;;0.50;0.20;;;7.80;1.00;;;;;;5048979;28;20644;-53
2022/02/19 09:51:33;;;;;;;1.20;0.30;;;7.90;1.00;;;;;;5053191;28;20469;-49
2022/02/19 09:54:02;;;;;;;0.57;0.32;;;7.90;1.00;;;;;;5049375;28;20437;-51
2022/02/19 09:56:29;;;;;;;1.20;0.30;;;8.00;1.00;;;;;;5038209;28;20528;-49
2022/02/19 09:58:58;;;;;;;1.30;0.20;;;7.90;1.00;;;;;;5041114;28;20433;-52
2022/02/19 10:01:27;;;;;;;0.57;0.20;;;8.00;1.00;;;;;;5038960;28;20666;-52
2022/02/19 10:04:01;;;;;;;1.20;0.30;;;8.00;1.00;;;;;;5038353;28;20442;-53
2022/02/19 10:06:29;;;;;;;0.88;0.30;;;8.20;1.00;;;;;;5041005;28;20916;-54
2022/02/19 10:09:13;;;;;;;0.88;0.30;;;8.30;1.00;;;;;;5051031;28;20459;-54
2022/02/19 10:11:41;;;;;;;1.60;0.20;;;8.30;1.00;;;;;;5051447;28;20473;-51
2022/02/19 10:14:22;;;;;;;1.50;0.30;;;8.30;1.00;;;;;;5035578;28;20445;-53
2022/02/19 10:17:11;;;;;;;0.60;0.20;;;8.20;1.00;;;;;;5045884;28;20433;-50
2022/02/19 10:19:52;;;;;;;1.00;0.30;;;8.10;1.00;;;;;;5048711;28;20490;-55
2022/02/19 10:22:20;;;;;;;1.70;0.20;;;8.30;1.00;;;;;;5034898;28;20439;-52
2022/02/19 10:24:48;;;;;;;0.73;0.30;;;8.30;1.00;;;;;;5050230;28;20447;-54
2022/02/19 10:27:15;;;;;;;1.30;0.30;;;8.30;1.00;;;;;;5052241;28;20432;-51
2022/02/19 10:29:50;;;;;;;0.90;0.30;;;8.10;1.00;;;;;;5036502;28;20439;-53
2022/02/19 10:32:18;;;;;;;0.98;0.30;;;8.00;1.00;;;;;;5037088;28;21094;-50
2022/02/19 10:35:04;;;;;;;1.90;0.30;;;8.10;1.00;;;;;;5048998;28;20432;-53
2022/02/19 10:37:31;;;;;;;3.03;0.30;;;8.30;1.00;;;;;;5051219;28;20461;-50
2022/02/19 10:39:59;;;;;;;1.60;0.30;;;8.50;1.00;;;;;;5052259;28;20424;-53
2022/02/19 10:42:34;;;;;;;1.50;0.40;;;8.80;1.00;;;;;;5041921;28;20508;-54
2022/02/19 10:45:08;;;;;;;1.20;0.40;;;8.90;1.00;;;;;;5045160;28;20427;-53
2022/02/19 10:47:35;;;;;;;1.90;0.40;;;8.90;1.00;;;;;;5045066;28;20528;-53
2022/02/19 10:50:11;;;;;;;0.60;0.20;;;8.70;1.00;;;;;;5048323;28;20433;-54
2022/02/19 10:52:42;;;;;;;1.00;0.30;;;8.60;1.00;;;;;;5040832;28;20432;-52
2022/02/19 10:55:10;;;;;;;1.02;0.20;;;8.70;1.00;;;;;;5043725;28;20441;-54
2022/02/19 10:57:39;;;;;;;0.60;0.20;;;9.00;1.00;;;;;;5035487;28;20457;-52
2022/02/19 11:00:16;;;;;;;0.70;0.30;;;9.30;1.00;;;;;;5046033;28;20726;-55
2022/02/19 11:02:46;;;;;;;1.80;0.30;;;9.40;1.00;;;;;;5052444;28;20499;-54
2022/02/19 11:05:16;;;;;;;0.50;0.20;;;9.50;1.00;;;;;;5051717;28;20919;-52
2022/02/19 11:07:45;;;;;;;1.50;0.30;;;9.60;1.00;;;;;;5047508;28;20431;-55
2022/02/19 11:10:14;;;;;;;0.40;0.20;;;9.90;1.00;;;;;;5049468;28;20444;-55
2022/02/19 11:12:41;;;;;;;0.70;0.20;;;10.20;1.00;;;;;;5037683;28;20432;-53
2022/02/19 11:15:09;;;;;;;0.40;0.20;;;10.10;1.00;;;;;;5044241;28;20725;-53
2022/02/19 11:17:37;;;;;;;0.52;0.20;;;10.20;1.00;;;;;;5045792;28;20461;-54
2022/02/19 11:20:06;;;;;;;0.88;0.28;;;10.30;1.00;;;;;;5049329;28;20434;-53
2022/02/19 11:22:36;;;;;;;0.60;0.30;;;10.60;1.00;;;;;;5043792;28;20421;-55
2022/02/19 11:25:06;;;;;;;0.90;0.22;;;10.70;1.00;;;;;;5048894;28;20732;-52
2022/02/19 11:27:37;;;;;;;2.40;0.35;;;10.60;1.00;;;;;;5049023;28;20536;-48
2022/02/19 11:30:07;;;;;;;1.20;0.30;;;10.40;1.00;;;;;;5049284;28;20503;-51
2022/02/19 11:32:37;;;;;;;0.93;0.30;;;10.70;1.00;;;;;;5043282;28;20489;-54
2022/02/19 11:35:04;;;;;;;0.80;0.20;;;11.00;1.00;;;;;;5052537;28;20433;-52
2022/02/19 11:37:40;;;;;;;0.50;0.20;;;10.90;1.00;;;;;;5053685;28;20504;-54
2022/02/19 11:40:11;;;;;;;0.60;0.30;;;10.60;1.00;;;;;;5040494;28;21142;-52
2022/02/19 11:42:44;;;;;;;1.13;0.30;;;10.60;1.00;;;;;;5055481;28;20425;-53
2022/02/19 11:45:17;;;;;;;1.48;0.20;;;10.40;1.00;;;;;;5054804;28;20429;-50
2022/02/19 11:47:45;;;;;;;0.70;0.30;;;10.60;1.00;;;;;;5045209;28;20426;-53
2022/02/19 11:50:25;;;;;;;1.10;0.30;;;10.90;1.00;;;;;;5055745;28;20523;-48
2022/02/19 11:53:26;;;;;;;0.95;0.30;;;11.00;1.00;;;;;;5056228;28;20463;-51
2022/02/19 11:55:54;;;;;;;0.85;0.22;;;11.40;1.00;;;;;;5036911;28;20439;-50
2022/02/19 11:58:24;;;;;;;0.50;0.20;;;11.60;1.00;;;;;;5045978;28;20425;-48
2022/02/19 12:00:53;;;;;;;1.98;0.20;;;11.60;1.00;;;;;;5056045;28;20429;-49
2022/02/19 12:03:23;;;;;;;1.00;0.20;;;11.80;1.00;;;;;;5056215;28;20833;-53
2022/02/19 12:06:18;;;;;;;0.50;0.20;;;11.80;1.00;;;;;;5056361;28;20429;-51
2022/02/19 12:09:12;;;;;;;0.70;0.30;;;11.80;1.00;;;;;;5045632;28;20439;-51
2022/02/19 12:12:08;;;;;;;0.90;0.20;;;12.00;1.00;;;;;;5036402;28;20501;-50
2022/02/19 12:15:01;;;;;;;2.20;0.30;;;11.90;1.00;;;;;;5053126;28;20430;-49
2022/02/19 12:17:46;;;;;;;0.70;0.20;;;12.10;1.00;;;;;;5054537;28;20425;-50
2022/02/19 12:20:41;;;;;;;0.70;0.20;;;12.00;1.00;;;;;;5049760;28;20437;-52
2022/02/19 12:23:10;;;;;;;0.70;0.30;;;12.30;1.00;;;;;;5001366;28;20911;-48
2022/02/19 12:26:07;;;;;;;0.52;0.20;;;12.10;1.00;;;;;;5055946;28;20855;-53
2022/02/19 12:28:36;;;;;;;0.40;0.20;;;11.90;1.00;;;;;;5044054;28;20490;-53
2022/02/19 12:31:25;;;;;;;0.40;0.20;;;12.20;1.00;;;;;;5051808;28;20429;-55
2022/02/19 12:33:54;;;;;;;0.55;0.20;;;12.20;1.00;;;;;;5046000;28;20450;-54
2022/02/19 12:36:22;;;;;;;0.60;0.20;;;12.00;1.00;;;;;;5043157;28;20437;-56
2022/02/19 12:38:51;;;;;;;0.70;0.20;;;11.90;1.00;;;;;;5055263;28;20423;-53
2022/02/19 12:41:21;;;;;;;0.55;0.20;;;11.70;1.00;;;;;;5054318;28;20777;-52
2022/02/19 12:44:06;;;;;;;0.50;0.20;;;11.80;1.00;;;;;;5054460;28;20981;-53
2022/02/19 12:46:34;;;;;;;0.50;0.10;;;11.50;1.00;;;;;;5055639;28;20426;-54
2022/02/19 12:49:02;;;;;;;0.60;0.20;;;11.20;1.00;;;;;;5054411;28;20417;-53
2022/02/19 12:51:29;;;;;;;0.80;0.20;;;11.10;1.00;;;;;;5052288;28;20544;-51
2022/02/19 12:53:55;;;;;;;0.70;0.20;;;11.30;1.00;;;;;;5048516;28;20746;-52
2022/02/19 12:56:29;;;;;;;0.90;0.20;;;11.10;1.00;;;;;;5043043;28;20485;-53
2022/02/19 12:58:56;;;;;;;0.93;0.20;;;11.00;1.00;;;;;;5048507;28;20431;-55
2022/02/19 13:01:28;;;;;;;1.05;0.20;;;11.10;1.00;;;;;;5045511;28;20496;-63
2022/02/19 13:03:55;;;;;;;1.20;0.50;;;10.80;1.00;;;;;;5051311;28;20491;-63
2022/02/19 13:06:25;;;;;;;4.20;2.30;;;10.70;1.00;;;;;;5051307;28;20915;-64
2022/02/19 13:08:59;;;;;;;0.90;0.30;;;10.80;1.00;;;;;;5047154;28;20852;-63
2022/02/19 13:11:30;;;;;;;0.60;0.20;;;11.00;1.00;;;;;;5047421;28;21076;-63
2022/02/19 13:14:05;;;;;;;1.63;0.20;;;10.80;1.00;;;;;;5047887;28;20852;-64
2022/02/19 13:16:32;;;;;;;0.50;0.20;;;10.80;1.00;;;;;;5043075;28;20875;-63
2022/02/19 13:18:59;;;;;;;1.20;0.30;;;10.70;1.00;;;;;;5051203;28;20482;-63
2022/02/19 13:21:26;;;;;;;0.70;0.30;;;10.60;1.00;;;;;;5052279;28;20425;-63